createdAt,value
2023-01-11T00:01:07.242Z,9.20
2023-01-11T00:03:35.838Z,9.20
2023-01-11T00:06:04.941Z,9.20
2023-01-11T00:08:33.378Z,9.20
2023-01-11T00:11:03.318Z,9.20
2023-01-11T00:13:32.137Z,9.20
2023-01-11T00:16:07.005Z,9.20
2023-01-11T00:18:35.558Z,9.20
2023-01-11T00:21:05.598Z,9.10
2023-01-11T00:23:33.851Z,9.10
2023-01-11T00:26:05.428Z,9.10
2023-01-11T00:28:33.761Z,9.10
2023-01-11T00:31:02.106Z,9.10
2023-01-11T00:33:30.632Z,9.10
2023-01-11T00:35:58.894Z,9.10
2023-01-11T00:38:47.024Z,9.00
2023-01-11T00:41:34.823Z,9.10
2023-01-11T00:44:20.742Z,9.00
2023-01-11T00:47:06.703Z,9.00
2023-01-11T00:49:35.011Z,9.00
2023-01-11T00:52:05.834Z,9.00
2023-01-11T00:54:34.131Z,9.00
2023-01-11T00:57:04.508Z,9.00
2023-01-11T00:59:32.736Z,9.00
2023-01-11T01:02:01.136Z,9.00
2023-01-11T01:04:30.205Z,9.00
2023-01-11T01:06:58.581Z,9.00
2023-01-11T01:09:27.143Z,8.90
2023-01-11T01:11:55.341Z,8.90
2023-01-11T01:14:29.017Z,8.90
2023-01-11T01:17:00.481Z,8.90
2023-01-11T01:19:29.572Z,8.90
2023-01-11T01:21:59.249Z,8.90
2023-01-11T01:24:28.929Z,8.80
2023-01-11T01:26:57.493Z,8.80
2023-01-11T01:29:27.336Z,8.80
2023-01-11T01:31:55.677Z,8.80
2023-01-11T01:34:23.896Z,8.80
2023-01-11T01:36:52.229Z,8.80
2023-01-11T01:39:20.432Z,8.80
2023-01-11T01:41:48.781Z,8.80
2023-01-11T01:44:54.284Z,8.80
2023-01-11T01:47:28.235Z,8.80
2023-01-11T01:49:57.420Z,8.80
2023-01-11T01:52:29.157Z,8.80
2023-01-11T01:55:02.260Z,8.80
2023-01-11T01:57:34.113Z,8.80
2023-01-11T02:00:06.717Z,8.80
2023-01-11T02:02:38.523Z,8.80
2023-01-11T02:05:08.803Z,8.80
2023-01-11T02:07:40.765Z,8.70
2023-01-11T02:10:11.515Z,8.80
2023-01-11T02:12:43.128Z,8.70
2023-01-11T02:15:12.805Z,8.70
2023-01-11T02:17:42.440Z,8.70
2023-01-11T02:20:48.197Z,8.70
2023-01-11T02:23:53.031Z,8.70
2023-01-11T02:26:48.528Z,8.70
2023-01-11T02:29:31.214Z,8.70
2023-01-11T02:32:11.745Z,8.60
2023-01-11T02:34:46.863Z,8.60
2023-01-11T02:37:27.149Z,8.60
2023-01-11T02:40:03.900Z,8.60
2023-01-11T02:42:57.131Z,8.60
2023-01-11T02:45:39.712Z,8.60
2023-01-11T02:48:17.430Z,8.60
2023-01-11T02:50:50.687Z,8.60
2023-01-11T02:53:27.193Z,8.50
2023-01-11T02:55:59.910Z,8.50
2023-01-11T02:58:31.263Z,8.50
2023-01-11T03:01:01.767Z,8.50
2023-01-11T03:03:30.279Z,8.50
2023-01-11T03:06:04.282Z,8.50
2023-01-11T03:08:51.898Z,8.50
2023-01-11T03:11:58.788Z,8.50
2023-01-11T03:14:34.975Z,8.50
2023-01-11T03:17:11.129Z,8.40
2023-01-11T03:19:46.169Z,8.50
2023-01-11T03:22:26.348Z,8.50
2023-01-11T03:25:01.857Z,8.50
2023-01-11T03:27:36.826Z,8.50
2023-01-11T03:30:09.443Z,8.50
2023-01-11T03:32:47.979Z,8.60
2023-01-11T03:35:24.115Z,8.60
2023-01-11T03:37:56.683Z,8.60
2023-01-11T03:40:29.630Z,8.60
2023-01-11T03:43:14.120Z,8.70
2023-01-11T03:45:51.094Z,8.70
2023-01-11T03:48:23.726Z,8.60
2023-01-11T03:50:54.941Z,8.60
2023-01-11T03:53:25.710Z,8.60
2023-01-11T03:55:57.732Z,8.50
2023-01-11T03:58:28.114Z,8.50
2023-01-11T04:00:58.044Z,8.50
2023-01-11T04:03:28.349Z,8.40
2023-01-11T04:06:00.792Z,8.40
2023-01-11T04:08:29.357Z,8.40
2023-01-11T04:10:57.675Z,8.40
2023-01-11T04:13:25.906Z,8.40
2023-01-11T04:15:54.666Z,8.30
2023-01-11T04:18:22.917Z,8.30
2023-01-11T04:20:52.730Z,8.30
2023-01-11T04:23:21.009Z,8.30
2023-01-11T04:25:49.289Z,8.30
2023-01-11T04:28:19.439Z,8.30
2023-01-11T04:30:47.740Z,8.30
2023-01-11T04:33:16.001Z,8.30
2023-01-11T04:35:44.773Z,8.20
2023-01-11T04:38:14.429Z,8.30
2023-01-11T04:40:42.719Z,8.20
2023-01-11T04:43:09.970Z,8.20
2023-01-11T04:45:38.345Z,8.20
2023-01-11T04:48:07.144Z,8.20
2023-01-11T04:50:35.421Z,8.20
2023-01-11T04:53:03.653Z,8.20
2023-01-11T04:55:33.262Z,8.20
2023-01-11T04:58:01.503Z,8.20
2023-01-11T05:00:29.734Z,8.20
2023-01-11T05:03:00.888Z,8.20
2023-01-11T05:05:30.250Z,8.20
2023-01-11T05:07:58.489Z,8.20
2023-01-11T05:10:26.681Z,8.20
2023-01-11T05:12:56.276Z,8.20
2023-01-11T05:15:24.505Z,8.20
2023-01-11T05:17:52.697Z,8.20
2023-01-11T05:20:20.914Z,8.30
2023-01-11T05:22:49.708Z,8.30
2023-01-11T05:25:18.287Z,8.20
2023-01-11T05:27:46.578Z,8.20
2023-01-11T05:30:16.662Z,8.20
2023-01-11T05:32:44.899Z,8.20
2023-01-11T05:35:13.112Z,8.20
2023-01-11T05:37:41.323Z,8.20
2023-01-11T05:40:11.505Z,8.20
2023-01-11T05:42:39.708Z,8.20
2023-01-11T05:45:26.809Z,8.30
2023-01-11T05:47:56.709Z,8.30
2023-01-11T05:50:24.958Z,8.30
2023-01-11T05:52:53.482Z,8.40
2023-01-11T05:55:21.711Z,8.40
2023-01-11T05:57:51.108Z,8.40
2023-01-11T06:00:20.228Z,8.50
2023-01-11T06:02:48.665Z,8.50
2023-01-11T06:05:18.423Z,8.50
2023-01-11T06:07:46.815Z,8.50
2023-01-11T06:10:15.051Z,8.60
2023-01-11T06:12:43.286Z,8.50
2023-01-11T06:15:11.893Z,8.60
2023-01-11T06:17:41.142Z,8.70
2023-01-11T06:20:11.160Z,8.70
2023-01-11T06:22:40.827Z,8.70
2023-01-11T06:25:09.727Z,8.80
2023-01-11T06:27:38.003Z,8.80
2023-01-11T06:30:07.305Z,8.80
2023-01-11T06:32:35.613Z,8.80
2023-01-11T06:35:03.834Z,8.70
2023-01-11T06:37:32.059Z,8.80
2023-01-11T06:40:01.661Z,8.80
2023-01-11T06:42:29.879Z,8.70
2023-01-11T06:44:58.104Z,8.70
2023-01-11T06:47:26.326Z,8.60
2023-01-11T06:49:54.576Z,8.60
2023-01-11T06:52:22.867Z,8.60
2023-01-11T06:54:51.171Z,8.60
2023-01-11T06:57:20.751Z,8.60
2023-01-11T06:59:49.107Z,8.50
2023-01-11T07:02:17.607Z,8.60
2023-01-11T07:04:45.947Z,8.60
2023-01-11T07:07:14.206Z,8.50
2023-01-11T07:09:42.512Z,8.50
2023-01-11T07:12:10.768Z,8.50
2023-01-11T07:14:40.368Z,8.50
2023-01-11T07:17:08.597Z,8.50
2023-01-11T07:19:36.829Z,8.50
2023-01-11T07:22:05.092Z,8.60
2023-01-11T07:24:33.353Z,8.60
2023-01-11T07:27:03.097Z,8.60
2023-01-11T07:29:31.332Z,8.70
2023-01-11T07:32:01.138Z,8.60
2023-01-11T07:34:29.660Z,8.70
2023-01-11T07:36:57.978Z,8.70
2023-01-11T07:39:38.505Z,8.70
2023-01-11T07:42:29.785Z,8.70
2023-01-11T07:44:58.039Z,8.70
2023-01-11T07:47:27.667Z,8.70
2023-01-11T07:49:55.983Z,8.70
2023-01-11T07:52:24.187Z,8.70
2023-01-11T07:54:52.545Z,8.70
2023-01-11T07:57:20.863Z,8.70
2023-01-11T07:59:49.107Z,8.70
2023-01-11T08:02:17.367Z,8.70
2023-01-11T08:04:47.229Z,8.70
2023-01-11T08:07:16.076Z,8.70
2023-01-11T08:09:44.351Z,8.70
2023-01-11T08:12:29.830Z,8.70
2023-01-11T08:14:58.064Z,8.70
2023-01-11T08:17:26.605Z,8.70
2023-01-11T08:19:56.995Z,8.70
2023-01-11T08:22:25.235Z,8.70
2023-01-11T08:24:53.459Z,8.70
2023-01-11T08:27:21.878Z,8.70
2023-01-11T08:29:50.271Z,8.70
2023-01-11T08:32:18.514Z,8.80
2023-01-11T08:34:46.815Z,8.70
2023-01-11T08:37:16.516Z,8.70
2023-01-11T08:39:44.731Z,8.70
2023-01-11T08:42:12.953Z,8.80
2023-01-11T08:44:41.482Z,8.80
2023-01-11T08:47:09.891Z,8.80
2023-01-11T08:49:38.089Z,8.80
2023-01-11T08:52:06.667Z,8.70
2023-01-11T08:54:36.322Z,8.80
2023-01-11T08:57:04.652Z,8.70
2023-01-11T08:59:32.938Z,8.70
2023-01-11T09:02:02.904Z,8.80
2023-01-11T09:04:31.381Z,8.80
2023-01-11T09:06:59.712Z,8.80
2023-01-11T09:09:27.955Z,8.80
2023-01-11T09:12:04.116Z,8.80
2023-01-11T09:14:34.412Z,8.80
2023-01-11T09:17:02.695Z,8.80
2023-01-11T09:19:33.692Z,8.70
2023-01-11T09:22:03.308Z,8.70
2023-01-11T09:24:32.163Z,8.70
2023-01-11T09:27:02.303Z,8.70
2023-01-11T09:29:30.620Z,8.70
2023-01-11T09:31:59.202Z,8.80
2023-01-11T09:34:27.570Z,8.70
2023-01-11T09:37:00.055Z,8.80
2023-01-11T09:39:29.550Z,8.80
2023-01-11T09:42:32.380Z,8.90
2023-01-11T09:45:11.537Z,8.90
2023-01-11T09:47:43.371Z,8.90
2023-01-11T09:50:19.863Z,9.00
2023-01-11T09:52:53.298Z,9.00
2023-01-11T09:55:30.977Z,9.00
2023-01-11T09:58:12.929Z,9.00
2023-01-11T10:00:52.440Z,8.90
2023-01-11T10:03:54.370Z,8.90
2023-01-11T10:06:27.636Z,9.00
2023-01-11T10:18:30.859Z,9.10
2023-01-11T10:18:49.381Z,9.10
2023-01-11T10:21:23.527Z,9.10
2023-01-11T10:23:56.753Z,9.10
2023-01-11T10:26:29.220Z,9.00
2023-01-11T10:29:22.332Z,9.00
2023-01-11T10:32:13.620Z,9.00
2023-01-11T10:35:06.117Z,8.90
2023-01-11T10:37:50.758Z,9.00
2023-01-11T10:40:35.320Z,9.00
2023-01-11T10:43:09.472Z,9.00
2023-01-11T10:45:43.383Z,9.00
2023-01-11T10:48:20.791Z,9.00
2023-01-11T10:50:55.582Z,9.00
2023-01-11T10:53:29.372Z,9.00
2023-01-11T10:56:05.606Z,8.90
2023-01-11T10:58:57.949Z,8.90
2023-01-11T11:01:38.489Z,8.90
2023-01-11T11:04:24.261Z,8.90
2023-01-11T11:07:02.715Z,8.80
2023-01-11T11:09:39.987Z,8.80
2023-01-11T11:12:14.562Z,8.80
2023-01-11T11:14:48.612Z,8.80
2023-01-11T11:17:24.653Z,8.80
2023-01-11T11:19:54.707Z,8.80
2023-01-11T11:22:23.064Z,8.90
2023-01-11T11:24:56.493Z,8.80
2023-01-11T11:27:30.118Z,8.90
2023-01-11T11:29:58.726Z,8.90
2023-01-11T11:32:30.143Z,8.80
2023-01-11T11:34:59.803Z,8.80
2023-01-11T11:37:33.677Z,8.90
2023-01-11T11:40:02.705Z,8.90
2023-01-11T11:42:30.970Z,8.90
2023-01-11T11:45:16.839Z,9.00
2023-01-11T11:48:00.979Z,9.00
2023-01-11T11:50:44.865Z,9.00
2023-01-11T11:53:30.224Z,9.10
2023-01-11T11:55:59.169Z,9.00
2023-01-11T11:58:28.571Z,9.00
2023-01-11T12:00:56.867Z,9.00
2023-01-11T12:03:30.200Z,9.00
2023-01-11T12:06:02.549Z,9.00
2023-01-11T12:08:34.261Z,9.00
2023-01-11T12:11:04.775Z,9.00
2023-01-11T12:13:34.853Z,9.00
2023-01-11T12:16:04.766Z,9.10
2023-01-11T12:18:41.507Z,9.10
2023-01-11T12:21:21.259Z,9.10
2023-01-11T12:23:49.784Z,9.10
2023-01-11T12:26:22.732Z,9.10
2023-01-11T12:29:29.494Z,9.10
2023-01-11T12:32:16.421Z,9.20
2023-01-11T12:35:03.664Z,9.30
2023-01-11T12:37:47.912Z,9.30
2023-01-11T12:40:21.919Z,9.30
2023-01-11T12:43:05.180Z,9.30
2023-01-11T12:45:42.406Z,9.20
2023-01-11T12:48:31.018Z,9.00
2023-01-11T12:51:14.620Z,8.90
2023-01-11T12:54:07.511Z,8.70
2023-01-11T12:56:46.619Z,8.70
2023-01-11T12:59:29.023Z,8.60
2023-01-11T13:02:06.035Z,8.70
2023-01-11T13:04:53.101Z,8.70
2023-01-11T13:07:34.942Z,8.80
2023-01-11T13:10:17.508Z,8.80
2023-01-11T13:12:53.326Z,8.80
2023-01-11T13:15:34.486Z,8.80
2023-01-11T13:18:12.397Z,8.80
2023-01-11T13:21:00.599Z,8.80
2023-01-11T13:23:39.246Z,8.80
2023-01-11T13:26:18.742Z,8.70
2023-01-11T13:28:51.553Z,8.70
2023-01-11T13:31:20.559Z,8.70
2023-01-11T13:33:57.349Z,8.70
2023-01-11T13:36:29.666Z,8.70
2023-01-11T13:39:01.753Z,8.70
2023-01-11T13:41:36.349Z,8.80
2023-01-11T13:44:09.636Z,8.70
2023-01-11T13:46:50.975Z,8.80
2023-01-11T13:49:38.297Z,8.80
2023-01-11T13:52:13.891Z,8.80
2023-01-11T13:54:51.862Z,8.80
2023-01-11T13:57:28.722Z,8.90
2023-01-11T14:00:04.249Z,8.90
2023-01-11T14:02:41.024Z,9.00
2023-01-11T14:05:16.666Z,9.10
2023-01-11T14:08:00.894Z,9.10
2023-01-11T14:10:41.081Z,9.10
2023-01-11T14:13:41.761Z,9.10
2023-01-11T14:16:19.513Z,9.20
2023-01-11T14:18:55.783Z,9.20
2023-01-11T14:21:31.395Z,9.20
2023-01-11T14:24:01.223Z,9.30
2023-01-11T14:27:06.118Z,9.30
2023-01-11T14:30:11.549Z,9.40
2023-01-11T14:33:16.319Z,9.50
2023-01-11T14:36:04.023Z,9.50
2023-01-11T14:39:01.629Z,9.50
2023-01-11T14:41:50.215Z,9.40
2023-01-11T14:45:02.488Z,9.40
2023-01-11T14:47:45.655Z,9.40
2023-01-11T14:50:21.095Z,9.40
2023-01-11T14:52:52.206Z,9.30
2023-01-11T14:55:24.363Z,9.30
2023-01-11T14:58:04.942Z,9.30
2023-01-11T15:01:05.610Z,9.20
2023-01-11T15:03:56.486Z,9.20
2023-01-11T15:06:25.415Z,9.20
2023-01-11T15:08:56.006Z,9.20
2023-01-11T15:11:42.098Z,9.20
2023-01-11T15:14:28.378Z,9.20
2023-01-11T15:17:17.453Z,9.10
2023-01-11T15:19:53.477Z,9.10
2023-01-11T15:22:31.234Z,9.10
2023-01-11T15:25:02.278Z,9.10
2023-01-11T15:27:34.344Z,9.10
2023-01-11T15:30:03.862Z,9.10
2023-01-11T15:32:33.804Z,9.10
2023-01-11T15:35:34.676Z,9.10
2023-01-11T15:38:12.814Z,9.10
2023-01-11T15:40:43.335Z,9.10
2023-01-11T15:43:40.903Z,9.10
2023-01-11T15:46:55.547Z,9.00
2023-01-11T15:50:03.392Z,9.10
2023-01-11T15:53:10.242Z,9.10
2023-01-11T15:56:16.500Z,9.10
2023-01-11T15:59:17.029Z,9.10
2023-01-11T16:02:23.057Z,9.00
2023-01-11T16:04:54.943Z,9.10
2023-01-11T16:07:34.666Z,9.00
2023-01-11T16:10:27.800Z,9.00
2023-01-11T16:13:17.319Z,9.00
2023-01-11T16:15:58.693Z,9.00
2023-01-11T16:18:31.126Z,9.00
2023-01-11T16:21:03.230Z,9.00
2023-01-11T16:23:32.808Z,9.00
2023-01-11T16:26:05.008Z,9.00
2023-01-11T16:28:34.858Z,8.90
2023-01-11T16:31:05.217Z,9.00
2023-01-11T16:33:35.109Z,9.00
2023-01-11T16:36:10.805Z,9.00
2023-01-11T16:38:46.618Z,9.00
2023-01-11T16:41:17.770Z,9.00
2023-01-11T16:43:51.315Z,9.00
2023-01-11T16:46:53.060Z,9.00
2023-01-11T16:49:21.427Z,9.00
2023-01-11T16:51:49.844Z,9.00
2023-01-11T16:54:25.277Z,9.00
2023-01-11T16:56:55.813Z,9.00
2023-01-11T16:59:30.564Z,9.00
2023-01-11T17:02:03.565Z,9.00
2023-01-11T17:04:33.344Z,9.00
2023-01-11T17:07:14.365Z,9.00
2023-01-11T17:09:43.978Z,9.00
2023-01-11T17:12:18.300Z,9.00
2023-01-11T17:15:01.449Z,9.10
2023-01-11T17:17:35.061Z,9.10
2023-01-11T17:20:03.596Z,9.10
2023-01-11T17:22:33.936Z,9.10
2023-01-11T17:25:04.992Z,9.20
2023-01-11T17:27:40.647Z,9.10
2023-01-11T17:30:19.212Z,9.20
2023-01-11T17:32:49.995Z,9.10
2023-01-11T17:35:20.454Z,9.20
2023-01-11T17:37:51.069Z,9.20
2023-01-11T17:40:26.197Z,9.10
2023-01-11T17:43:15.241Z,9.20
2023-01-11T17:45:44.403Z,9.10
2023-01-11T17:48:14.375Z,9.10
2023-01-11T17:50:49.164Z,9.10
2023-01-11T17:53:22.437Z,9.20
2023-01-11T17:55:53.140Z,9.20
2023-01-11T17:58:26.269Z,9.20
2023-01-11T18:01:18.355Z,9.20
2023-01-11T18:03:49.075Z,9.20
2023-01-11T18:06:24.970Z,9.20
2023-01-11T18:08:55.807Z,9.10
2023-01-11T18:11:27.301Z,9.20
2023-01-11T18:13:59.594Z,9.20
2023-01-11T18:16:28.057Z,9.20
2023-01-11T18:18:56.892Z,9.30
2023-01-11T18:21:42.751Z,9.20
2023-01-11T18:24:33.753Z,9.30
2023-01-11T18:27:20.181Z,9.30
2023-01-11T18:29:51.838Z,9.30
2023-01-11T18:32:20.953Z,9.30
2023-01-11T18:34:52.420Z,9.30
2023-01-11T18:37:21.649Z,9.30
2023-01-11T18:39:52.353Z,9.30
2023-01-11T18:42:24.067Z,9.30
2023-01-11T18:44:53.990Z,9.40
2023-01-11T18:47:23.950Z,9.40
2023-01-11T18:49:53.592Z,9.40
2023-01-11T18:52:27.331Z,9.40
2023-01-11T18:54:56.741Z,9.40
2023-01-11T18:57:25.251Z,9.40
2023-01-11T18:59:54.881Z,9.50
2023-01-11T19:02:26.017Z,9.50
2023-01-11T19:04:56.223Z,9.60
2023-01-11T19:07:28.283Z,9.60
2023-01-11T19:09:56.515Z,9.60
2023-01-11T19:12:25.086Z,9.60
2023-01-11T19:14:54.814Z,9.60
2023-01-11T19:17:23.255Z,9.60
2023-01-11T19:19:51.514Z,9.70
2023-01-11T19:22:23.239Z,9.60
2023-01-11T19:24:54.617Z,9.60
2023-01-11T19:27:23.196Z,9.60
2023-01-11T19:29:52.799Z,9.70
2023-01-11T19:32:25.200Z,9.70
2023-01-11T19:34:53.550Z,9.70
2023-01-11T19:37:21.794Z,9.70
2023-01-11T19:39:50.090Z,9.70
2023-01-11T19:42:18.345Z,9.70
2023-01-11T19:44:46.561Z,9.70
2023-01-11T19:47:15.805Z,9.80
2023-01-11T19:49:45.789Z,9.80
2023-01-11T19:52:21.067Z,9.70
2023-01-11T19:54:49.724Z,9.80
2023-01-11T19:57:22.030Z,9.70
2023-01-11T19:59:51.305Z,9.80
2023-01-11T20:02:21.292Z,9.80
2023-01-11T20:04:51.404Z,9.80
2023-01-11T20:07:20.444Z,9.80
2023-01-11T20:09:48.798Z,9.80
2023-01-11T20:12:17.056Z,9.80
2023-01-11T20:14:46.399Z,9.80
2023-01-11T20:17:15.965Z,9.80
2023-01-11T20:19:44.374Z,9.80
2023-01-11T20:22:14.566Z,9.80
2023-01-11T20:24:42.842Z,9.80
2023-01-11T20:27:11.255Z,9.80
2023-01-11T20:29:39.752Z,9.80
2023-01-11T20:32:31.198Z,9.80
2023-01-11T20:34:56.741Z,9.80
2023-01-11T20:37:26.371Z,9.80
2023-01-11T20:39:54.611Z,9.80
2023-01-11T20:42:23.079Z,9.90
2023-01-11T20:44:51.362Z,9.80
2023-01-11T20:47:19.631Z,9.90
2023-01-11T20:49:47.918Z,9.90
2023-01-11T20:52:16.176Z,9.90
2023-01-11T20:54:45.801Z,9.90
2023-01-11T20:57:14.233Z,9.90
2023-01-11T20:59:42.675Z,10.00
2023-01-11T21:02:13.683Z,10.00
2023-01-11T21:04:42.085Z,10.00
2023-01-11T21:07:10.312Z,10.00
2023-01-11T21:09:38.591Z,10.00
2023-01-11T21:12:09.670Z,10.00
2023-01-11T21:14:38.020Z,10.00
2023-01-11T21:17:06.440Z,10.00
2023-01-11T21:19:34.782Z,10.00
2023-01-11T21:22:03.091Z,10.00
2023-01-11T21:24:31.515Z,10.00
2023-01-11T21:26:59.785Z,10.10
2023-01-11T21:29:29.443Z,10.10
2023-01-11T21:31:57.712Z,10.20
2023-01-11T21:34:26.050Z,10.30
2023-01-11T21:36:54.406Z,10.40
2023-01-11T21:39:22.798Z,10.50
2023-01-11T21:41:58.416Z,10.60
2023-01-11T21:44:31.978Z,10.70
2023-01-11T21:47:00.620Z,10.80
2023-01-11T21:49:29.101Z,10.80
2023-01-11T21:51:57.373Z,10.90
2023-01-11T21:54:25.797Z,11.00
2023-01-11T21:56:54.081Z,11.10
2023-01-11T21:59:22.845Z,11.10
2023-01-11T22:01:52.625Z,11.10
2023-01-11T22:04:21.840Z,11.10
2023-01-11T22:06:56.164Z,11.20
2023-01-11T22:09:27.445Z,11.30
2023-01-11T22:11:55.912Z,11.40
2023-01-11T22:14:24.178Z,11.40
2023-01-11T22:16:54.316Z,11.40
2023-01-11T22:19:22.566Z,11.50
2023-01-11T22:21:50.855Z,11.50
2023-01-11T22:24:19.240Z,11.50
2023-01-11T22:26:47.554Z,11.60
2023-01-11T22:29:19.911Z,11.60
2023-01-11T22:31:51.147Z,11.60
2023-01-11T22:34:21.983Z,11.70
2023-01-11T22:36:50.608Z,11.80
2023-01-11T22:39:20.120Z,11.80
2023-01-11T22:41:49.036Z,11.90
2023-01-11T22:44:17.521Z,12.00
2023-01-11T22:46:46.091Z,12.00
2023-01-11T22:49:15.042Z,12.10
2023-01-11T22:51:45.125Z,12.10
2023-01-11T22:54:14.104Z,12.20
2023-01-11T22:56:42.676Z,12.30
2023-01-11T22:59:11.313Z,12.40
2023-01-11T23:01:41.054Z,12.40
2023-01-11T23:04:12.858Z,12.40
2023-01-11T23:06:43.141Z,12.40
2023-01-11T23:09:16.586Z,12.50
2023-01-11T23:12:03.364Z,12.60
2023-01-11T23:14:33.042Z,12.60
2023-01-11T23:17:04.060Z,12.60
2023-01-11T23:19:33.130Z,12.70
2023-01-11T23:22:01.361Z,12.70
2023-01-11T23:24:31.271Z,12.70
2023-01-11T23:26:59.552Z,12.70
2023-01-11T23:29:27.950Z,12.60
2023-01-11T23:31:56.378Z,12.60
2023-01-11T23:34:24.748Z,12.70
2023-01-11T23:36:52.978Z,12.70
2023-01-11T23:39:21.420Z,12.70
2023-01-11T23:42:08.377Z,12.70
2023-01-11T23:44:37.178Z,12.70
2023-01-11T23:47:24.986Z,12.70
2023-01-11T23:49:56.619Z,12.70
2023-01-11T23:52:26.443Z,12.70
2023-01-11T23:54:55.032Z,12.70
2023-01-11T23:57:26.406Z,12.80
2023-01-11T23:59:54.822Z,12.80
